sensor_id;sensor_type;location;lat;lon;timestamp;temperature;humidity
21672;DHT22;10997;52.242;8.168;2023-10-31T00:04:21;12.50;99.90
21672;DHT22;10997;52.242;8.168;2023-10-31T00:09:22;12.50;99.90
21672;DHT22;10997;52.242;8.168;2023-10-31T00:14:22;12.40;99.90
21672;DHT22;10997;52.242;8.168;2023-10-31T00:19:23;12.50;99.90
21672;DHT22;10997;52.242;8.168;2023-10-31T00:24:24;12.50;99.90
21672;DHT22;10997;52.242;8.168;2023-10-31T00:29:24;12.50;99.90
21672;DHT22;10997;52.242;8.168;2023-10-31T00:34:25;12.50;99.90
21672;DHT22;10997;52.242;8.168;2023-10-31T00:39:25;12.50;99.90
21672;DHT22;10997;52.242;8.168;2023-10-31T00:44:26;12.50;99.90
21672;DHT22;10997;52.242;8.168;2023-10-31T00:49:26;12.50;99.90
21672;DHT22;10997;52.242;8.168;2023-10-31T00:54:27;12.50;99.90
21672;DHT22;10997;52.242;8.168;2023-10-31T00:59:29;12.50;99.90
21672;DHT22;10997;52.242;8.168;2023-10-31T01:04:30;12.50;99.90
21672;DHT22;10997;52.242;8.168;2023-10-31T01:09:31;12.40;99.90
21672;DHT22;10997;52.242;8.168;2023-10-31T01:14:32;12.40;99.90
21672;DHT22;10997;52.242;8.168;2023-10-31T01:19:33;12.50;99.90
21672;DHT22;10997;52.242;8.168;2023-10-31T01:24:33;12.40;99.90
21672;DHT22;10997;52.242;8.168;2023-10-31T01:29:34;12.40;99.90
21672;DHT22;10997;52.242;8.168;2023-10-31T01:34:34;12.40;99.90
21672;DHT22;10997;52.242;8.168;2023-10-31T01:39:38;12.40;99.90
21672;DHT22;10997;52.242;8.168;2023-10-31T01:44:38;12.40;99.90
21672;DHT22;10997;52.242;8.168;2023-10-31T01:49:39;12.40;99.90
21672;DHT22;10997;52.242;8.168;2023-10-31T01:54:40;12.50;99.90
21672;DHT22;10997;52.242;8.168;2023-10-31T01:59:41;12.50;99.90
21672;DHT22;10997;52.242;8.168;2023-10-31T02:04:42;12.40;99.90
21672;DHT22;10997;52.242;8.168;2023-10-31T02:09:43;12.40;99.90
21672;DHT22;10997;52.242;8.168;2023-10-31T02:14:43;12.40;99.90
21672;DHT22;10997;52.242;8.168;2023-10-31T02:19:44;12.40;99.90
21672;DHT22;10997;52.242;8.168;2023-10-31T02:24:44;12.30;99.90
21672;DHT22;10997;52.242;8.168;2023-10-31T02:29:45;12.30;99.90
21672;DHT22;10997;52.242;8.168;2023-10-31T02:34:46;12.10;99.90
21672;DHT22;10997;52.242;8.168;2023-10-31T02:39:46;11.90;99.90
21672;DHT22;10997;52.242;8.168;2023-10-31T02:44:47;11.70;99.90
21672;DHT22;10997;52.242;8.168;2023-10-31T02:49:47;11.40;99.90
21672;DHT22;10997;52.242;8.168;2023-10-31T02:54:48;11.20;99.90
21672;DHT22;10997;52.242;8.168;2023-10-31T02:59:48;11.10;99.90
21672;DHT22;10997;52.242;8.168;2023-10-31T03:04:49;10.90;99.90
21672;DHT22;10997;52.242;8.168;2023-10-31T03:09:50;10.80;99.90
21672;DHT22;10997;52.242;8.168;2023-10-31T03:14:50;10.80;99.90
21672;DHT22;10997;52.242;8.168;2023-10-31T03:19:51;10.70;99.90
21672;DHT22;10997;52.242;8.168;2023-10-31T03:24:51;10.50;99.90
21672;DHT22;10997;52.242;8.168;2023-10-31T03:29:52;10.30;99.90
21672;DHT22;10997;52.242;8.168;2023-10-31T03:34:54;10.20;99.90
21672;DHT22;10997;52.242;8.168;2023-10-31T03:39:54;10.00;99.90
21672;DHT22;10997;52.242;8.168;2023-10-31T03:44:55;9.90;99.90
21672;DHT22;10997;52.242;8.168;2023-10-31T03:49:56;9.80;99.90
21672;DHT22;10997;52.242;8.168;2023-10-31T03:54:56;9.80;99.90
21672;DHT22;10997;52.242;8.168;2023-10-31T03:59:57;9.80;99.90
21672;DHT22;10997;52.242;8.168;2023-10-31T04:04:58;9.70;99.90
21672;DHT22;10997;52.242;8.168;2023-10-31T04:09:58;9.80;99.90
21672;DHT22;10997;52.242;8.168;2023-10-31T04:14:59;9.70;99.90
21672;DHT22;10997;52.242;8.168;2023-10-31T04:19:59;9.80;99.90
21672;DHT22;10997;52.242;8.168;2023-10-31T04:25:00;9.70;99.90
21672;DHT22;10997;52.242;8.168;2023-10-31T04:30:01;9.70;99.90
21672;DHT22;10997;52.242;8.168;2023-10-31T04:35:02;9.70;99.90
21672;DHT22;10997;52.242;8.168;2023-10-31T04:40:03;9.70;99.90
21672;DHT22;10997;52.242;8.168;2023-10-31T04:45:04;9.70;99.90
21672;DHT22;10997;52.242;8.168;2023-10-31T04:50:05;9.70;99.90
21672;DHT22;10997;52.242;8.168;2023-10-31T04:55:05;9.70;99.90
21672;DHT22;10997;52.242;8.168;2023-10-31T05:00:06;9.80;99.90
21672;DHT22;10997;52.242;8.168;2023-10-31T05:05:08;9.80;99.90
21672;DHT22;10997;52.242;8.168;2023-10-31T05:10:09;9.80;99.90
21672;DHT22;10997;52.242;8.168;2023-10-31T05:15:10;9.80;99.90
21672;DHT22;10997;52.242;8.168;2023-10-31T05:20:11;9.80;99.90
21672;DHT22;10997;52.242;8.168;2023-10-31T05:25:12;9.80;99.90
21672;DHT22;10997;52.242;8.168;2023-10-31T05:30:13;9.90;99.90
21672;DHT22;10997;52.242;8.168;2023-10-31T05:35:14;9.90;99.90
21672;DHT22;10997;52.242;8.168;2023-10-31T05:40:18;9.80;99.90
21672;DHT22;10997;52.242;8.168;2023-10-31T05:45:18;9.80;99.90
21672;DHT22;10997;52.242;8.168;2023-10-31T05:50:19;9.70;99.90
21672;DHT22;10997;52.242;8.168;2023-10-31T05:55:20;9.70;99.90
21672;DHT22;10997;52.242;8.168;2023-10-31T06:00:20;9.70;99.90
21672;DHT22;10997;52.242;8.168;2023-10-31T06:05:21;9.70;99.90
21672;DHT22;10997;52.242;8.168;2023-10-31T06:10:21;9.70;99.90
21672;DHT22;10997;52.242;8.168;2023-10-31T06:15:22;9.60;99.90
21672;DHT22;10997;52.242;8.168;2023-10-31T06:20:22;9.60;99.90
21672;DHT22;10997;52.242;8.168;2023-10-31T06:25:24;9.60;99.90
21672;DHT22;10997;52.242;8.168;2023-10-31T06:30:24;9.50;99.90
21672;DHT22;10997;52.242;8.168;2023-10-31T06:35:25;9.50;99.90
21672;DHT22;10997;52.242;8.168;2023-10-31T06:40:26;9.40;99.90
21672;DHT22;10997;52.242;8.168;2023-10-31T06:45:27;9.40;99.90
21672;DHT22;10997;52.242;8.168;2023-10-31T06:50:28;9.30;99.90
21672;DHT22;10997;52.242;8.168;2023-10-31T06:55:29;9.40;99.90
21672;DHT22;10997;52.242;8.168;2023-10-31T07:00:29;9.40;99.90
21672;DHT22;10997;52.242;8.168;2023-10-31T07:05:30;9.40;99.90
21672;DHT22;10997;52.242;8.168;2023-10-31T07:10:31;9.40;99.90
21672;DHT22;10997;52.242;8.168;2023-10-31T07:15:31;9.40;99.90
21672;DHT22;10997;52.242;8.168;2023-10-31T07:20:32;9.40;99.90
21672;DHT22;10997;52.242;8.168;2023-10-31T07:25:32;9.40;99.90
21672;DHT22;10997;52.242;8.168;2023-10-31T07:30:33;9.40;99.90
21672;DHT22;10997;52.242;8.168;2023-10-31T07:35:34;9.50;99.90
21672;DHT22;10997;52.242;8.168;2023-10-31T07:40:34;9.50;99.90
21672;DHT22;10997;52.242;8.168;2023-10-31T07:45:35;9.50;99.90
21672;DHT22;10997;52.242;8.168;2023-10-31T07:50:36;9.60;99.90
21672;DHT22;10997;52.242;8.168;2023-10-31T07:55:36;9.70;99.90
21672;DHT22;10997;52.242;8.168;2023-10-31T08:00:37;9.80;99.90
21672;DHT22;10997;52.242;8.168;2023-10-31T08:05:39;9.90;99.90
21672;DHT22;10997;52.242;8.168;2023-10-31T08:10:40;9.90;99.90
21672;DHT22;10997;52.242;8.168;2023-10-31T08:15:40;10.00;99.90
21672;DHT22;10997;52.242;8.168;2023-10-31T08:20:41;10.10;99.90
21672;DHT22;10997;52.242;8.168;2023-10-31T08:25:44;10.10;99.90
21672;DHT22;10997;52.242;8.168;2023-10-31T08:30:44;10.10;99.90
21672;DHT22;10997;52.242;8.168;2023-10-31T08:35:45;10.20;99.90
21672;DHT22;10997;52.242;8.168;2023-10-31T08:40:47;10.20;99.90
21672;DHT22;10997;52.242;8.168;2023-10-31T08:45:49;10.20;99.90
21672;DHT22;10997;52.242;8.168;2023-10-31T08:50:49;10.30;99.90
21672;DHT22;10997;52.242;8.168;2023-10-31T08:55:50;10.40;99.90
21672;DHT22;10997;52.242;8.168;2023-10-31T09:00:50;10.60;99.90
21672;DHT22;10997;52.242;8.168;2023-10-31T09:05:51;10.70;99.90
21672;DHT22;10997;52.242;8.168;2023-10-31T09:10:52;10.70;99.90
21672;DHT22;10997;52.242;8.168;2023-10-31T09:15:52;10.70;99.90
21672;DHT22;10997;52.242;8.168;2023-10-31T09:20:53;10.80;99.90
21672;DHT22;10997;52.242;8.168;2023-10-31T09:25:54;10.90;99.90
21672;DHT22;10997;52.242;8.168;2023-10-31T09:30:55;10.80;99.90
21672;DHT22;10997;52.242;8.168;2023-10-31T09:35:56;10.60;99.90
21672;DHT22;10997;52.242;8.168;2023-10-31T09:40:56;10.60;99.90
21672;DHT22;10997;52.242;8.168;2023-10-31T09:45:58;10.50;99.90
21672;DHT22;10997;52.242;8.168;2023-10-31T09:51:01;10.50;99.90
21672;DHT22;10997;52.242;8.168;2023-10-31T09:56:02;10.40;99.90
21672;DHT22;10997;52.242;8.168;2023-10-31T10:01:03;10.40;99.90
21672;DHT22;10997;52.242;8.168;2023-10-31T10:06:05;10.40;99.90
21672;DHT22;10997;52.242;8.168;2023-10-31T10:11:05;10.50;99.90
21672;DHT22;10997;52.242;8.168;2023-10-31T10:16:07;10.50;99.90
21672;DHT22;10997;52.242;8.168;2023-10-31T10:21:08;10.70;99.90
21672;DHT22;10997;52.242;8.168;2023-10-31T10:26:08;11.10;99.90
21672;DHT22;10997;52.242;8.168;2023-10-31T10:31:14;11.40;99.90
21672;DHT22;10997;52.242;8.168;2023-10-31T10:36:15;11.60;99.90
21672;DHT22;10997;52.242;8.168;2023-10-31T10:41:17;11.80;99.90
21672;DHT22;10997;52.242;8.168;2023-10-31T10:46:20;11.90;99.90
21672;DHT22;10997;52.242;8.168;2023-10-31T10:51:28;11.70;99.90
21672;DHT22;10997;52.242;8.168;2023-10-31T10:56:34;11.60;99.90
21672;DHT22;10997;52.242;8.168;2023-10-31T11:01:38;11.60;99.90
21672;DHT22;10997;52.242;8.168;2023-10-31T11:06:39;11.50;99.90
21672;DHT22;10997;52.242;8.168;2023-10-31T11:11:40;11.60;99.90
21672;DHT22;10997;52.242;8.168;2023-10-31T11:16:52;11.60;99.90
21672;DHT22;10997;52.242;8.168;2023-10-31T11:22:00;11.70;99.90
21672;DHT22;10997;52.242;8.168;2023-10-31T11:27:02;11.80;99.90
21672;DHT22;10997;52.242;8.168;2023-10-31T11:32:04;11.80;99.90
21672;DHT22;10997;52.242;8.168;2023-10-31T11:37:24;11.90;99.90
21672;DHT22;10997;52.242;8.168;2023-10-31T11:42:28;11.90;99.90
21672;DHT22;10997;52.242;8.168;2023-10-31T11:53:04;12.00;99.90
21672;DHT22;10997;52.242;8.168;2023-10-31T11:58:23;11.70;99.90
21672;DHT22;10997;52.242;8.168;2023-10-31T12:03:35;11.70;99.90
21672;DHT22;10997;52.242;8.168;2023-10-31T12:08:41;11.70;99.90
21672;DHT22;10997;52.242;8.168;2023-10-31T12:13:51;11.60;99.90
21672;DHT22;10997;52.242;8.168;2023-10-31T12:18:59;12.00;99.90
21672;DHT22;10997;52.242;8.168;2023-10-31T12:24:08;12.40;99.90
21672;DHT22;10997;52.242;8.168;2023-10-31T12:29:20;12.60;99.90
21672;DHT22;10997;52.242;8.168;2023-10-31T12:34:24;12.50;99.90
21672;DHT22;10997;52.242;8.168;2023-10-31T12:39:26;12.40;99.90
21672;DHT22;10997;52.242;8.168;2023-10-31T12:44:28;12.50;99.90
21672;DHT22;10997;52.242;8.168;2023-10-31T12:49:30;12.30;99.90
21672;DHT22;10997;52.242;8.168;2023-10-31T12:54:31;12.40;99.90
21672;DHT22;10997;52.242;8.168;2023-10-31T12:59:33;12.50;99.90
21672;DHT22;10997;52.242;8.168;2023-10-31T13:04:34;12.70;99.90
21672;DHT22;10997;52.242;8.168;2023-10-31T13:09:36;13.00;99.90
21672;DHT22;10997;52.242;8.168;2023-10-31T13:14:38;13.10;99.90
21672;DHT22;10997;52.242;8.168;2023-10-31T13:19:39;13.20;99.90
21672;DHT22;10997;52.242;8.168;2023-10-31T13:24:41;13.50;99.90
21672;DHT22;10997;52.242;8.168;2023-10-31T13:29:43;13.60;99.90
21672;DHT22;10997;52.242;8.168;2023-10-31T13:34:43;13.50;99.90
21672;DHT22;10997;52.242;8.168;2023-10-31T13:39:44;13.40;99.90
21672;DHT22;10997;52.242;8.168;2023-10-31T13:44:45;13.10;99.90
21672;DHT22;10997;52.242;8.168;2023-10-31T13:49:45;12.90;99.90
21672;DHT22;10997;52.242;8.168;2023-10-31T13:54:46;13.00;99.90
21672;DHT22;10997;52.242;8.168;2023-10-31T13:59:47;13.40;99.90
21672;DHT22;10997;52.242;8.168;2023-10-31T14:04:48;13.50;99.90
21672;DHT22;10997;52.242;8.168;2023-10-31T14:09:48;13.70;99.90
21672;DHT22;10997;52.242;8.168;2023-10-31T14:14:49;13.40;99.90
21672;DHT22;10997;52.242;8.168;2023-10-31T14:19:49;13.10;99.90
21672;DHT22;10997;52.242;8.168;2023-10-31T14:24:51;13.00;99.90
21672;DHT22;10997;52.242;8.168;2023-10-31T14:29:52;12.80;99.90
21672;DHT22;10997;52.242;8.168;2023-10-31T14:34:53;12.70;99.90
21672;DHT22;10997;52.242;8.168;2023-10-31T14:39:54;12.50;99.90
21672;DHT22;10997;52.242;8.168;2023-10-31T14:44:54;12.50;99.90
21672;DHT22;10997;52.242;8.168;2023-10-31T14:49:57;12.40;99.90
21672;DHT22;10997;52.242;8.168;2023-10-31T14:54:57;12.30;99.90
21672;DHT22;10997;52.242;8.168;2023-10-31T14:59:58;12.10;99.90
21672;DHT22;10997;52.242;8.168;2023-10-31T15:05:00;11.90;99.90
21672;DHT22;10997;52.242;8.168;2023-10-31T15:10:00;11.80;99.90
21672;DHT22;10997;52.242;8.168;2023-10-31T15:15:03;11.80;99.90
21672;DHT22;10997;52.242;8.168;2023-10-31T15:20:04;11.70;99.90
21672;DHT22;10997;52.242;8.168;2023-10-31T15:25:07;11.70;99.90
21672;DHT22;10997;52.242;8.168;2023-10-31T15:30:09;11.60;99.90
21672;DHT22;10997;52.242;8.168;2023-10-31T15:35:09;11.50;99.90
21672;DHT22;10997;52.242;8.168;2023-10-31T15:40:10;11.50;99.90
21672;DHT22;10997;52.242;8.168;2023-10-31T15:45:11;11.40;99.90
21672;DHT22;10997;52.242;8.168;2023-10-31T15:50:12;11.40;99.90
21672;DHT22;10997;52.242;8.168;2023-10-31T15:55:13;11.30;99.90
21672;DHT22;10997;52.242;8.168;2023-10-31T16:00:14;11.30;99.90
21672;DHT22;10997;52.242;8.168;2023-10-31T16:05:14;11.20;99.90
21672;DHT22;10997;52.242;8.168;2023-10-31T16:10:15;11.20;99.90
21672;DHT22;10997;52.242;8.168;2023-10-31T16:15:16;11.10;99.90
21672;DHT22;10997;52.242;8.168;2023-10-31T16:20:17;11.00;99.90
21672;DHT22;10997;52.242;8.168;2023-10-31T16:25:17;10.90;99.90
21672;DHT22;10997;52.242;8.168;2023-10-31T16:30:18;10.80;99.90
21672;DHT22;10997;52.242;8.168;2023-10-31T16:35:19;10.70;99.90
21672;DHT22;10997;52.242;8.168;2023-10-31T16:40:20;10.80;99.90
21672;DHT22;10997;52.242;8.168;2023-10-31T16:45:20;10.70;99.90
21672;DHT22;10997;52.242;8.168;2023-10-31T16:50:21;10.60;99.90
21672;DHT22;10997;52.242;8.168;2023-10-31T16:55:22;10.50;99.90
21672;DHT22;10997;52.242;8.168;2023-10-31T17:00:23;10.40;99.90
21672;DHT22;10997;52.242;8.168;2023-10-31T17:05:24;10.30;99.90
21672;DHT22;10997;52.242;8.168;2023-10-31T17:10:25;10.30;99.90
21672;DHT22;10997;52.242;8.168;2023-10-31T17:15:26;10.20;99.90
21672;DHT22;10997;52.242;8.168;2023-10-31T17:20:27;10.20;99.90
21672;DHT22;10997;52.242;8.168;2023-10-31T17:25:28;10.20;99.90
21672;DHT22;10997;52.242;8.168;2023-10-31T17:30:29;10.20;99.90
21672;DHT22;10997;52.242;8.168;2023-10-31T17:35:29;10.10;99.90
21672;DHT22;10997;52.242;8.168;2023-10-31T17:40:30;10.10;99.90
21672;DHT22;10997;52.242;8.168;2023-10-31T17:45:31;10.10;99.90
21672;DHT22;10997;52.242;8.168;2023-10-31T17:50:32;10.10;99.90
21672;DHT22;10997;52.242;8.168;2023-10-31T17:55:33;10.00;99.90
21672;DHT22;10997;52.242;8.168;2023-10-31T18:00:33;10.00;99.90
21672;DHT22;10997;52.242;8.168;2023-10-31T18:05:34;10.00;99.90
21672;DHT22;10997;52.242;8.168;2023-10-31T18:10:35;10.00;99.90
21672;DHT22;10997;52.242;8.168;2023-10-31T18:15:36;10.00;99.90
21672;DHT22;10997;52.242;8.168;2023-10-31T18:20:37;9.90;99.90
21672;DHT22;10997;52.242;8.168;2023-10-31T18:25:37;9.90;99.90
21672;DHT22;10997;52.242;8.168;2023-10-31T18:30:38;9.90;99.90
21672;DHT22;10997;52.242;8.168;2023-10-31T18:35:39;9.90;99.90
21672;DHT22;10997;52.242;8.168;2023-10-31T18:40:39;10.00;99.90
21672;DHT22;10997;52.242;8.168;2023-10-31T18:45:40;9.90;99.90
21672;DHT22;10997;52.242;8.168;2023-10-31T18:50:41;9.90;99.90
21672;DHT22;10997;52.242;8.168;2023-10-31T18:55:42;10.00;99.90
21672;DHT22;10997;52.242;8.168;2023-10-31T19:00:42;10.10;99.90
21672;DHT22;10997;52.242;8.168;2023-10-31T19:05:43;10.10;99.90
21672;DHT22;10997;52.242;8.168;2023-10-31T19:10:43;10.10;99.90
21672;DHT22;10997;52.242;8.168;2023-10-31T19:15:47;10.10;99.90
21672;DHT22;10997;52.242;8.168;2023-10-31T19:20:48;10.10;99.90
21672;DHT22;10997;52.242;8.168;2023-10-31T19:25:49;10.10;99.90
21672;DHT22;10997;52.242;8.168;2023-10-31T19:30:50;10.10;99.90
21672;DHT22;10997;52.242;8.168;2023-10-31T19:35:51;10.20;99.90
21672;DHT22;10997;52.242;8.168;2023-10-31T19:40:51;10.10;99.90
21672;DHT22;10997;52.242;8.168;2023-10-31T19:45:52;10.10;99.90
21672;DHT22;10997;52.242;8.168;2023-10-31T19:50:53;10.10;99.90
21672;DHT22;10997;52.242;8.168;2023-10-31T19:55:53;10.00;99.90
21672;DHT22;10997;52.242;8.168;2023-10-31T20:00:54;10.00;99.90
21672;DHT22;10997;52.242;8.168;2023-10-31T20:05:55;10.00;99.90
21672;DHT22;10997;52.242;8.168;2023-10-31T20:10:55;9.90;99.90
21672;DHT22;10997;52.242;8.168;2023-10-31T20:15:56;9.90;99.90
21672;DHT22;10997;52.242;8.168;2023-10-31T20:20:57;9.90;99.90
21672;DHT22;10997;52.242;8.168;2023-10-31T20:25:57;9.90;99.90
21672;DHT22;10997;52.242;8.168;2023-10-31T20:30:58;10.00;99.90
21672;DHT22;10997;52.242;8.168;2023-10-31T20:35:59;10.00;99.90
21672;DHT22;10997;52.242;8.168;2023-10-31T20:41:00;10.00;99.90
21672;DHT22;10997;52.242;8.168;2023-10-31T20:46:00;10.00;99.90
21672;DHT22;10997;52.242;8.168;2023-10-31T20:51:01;10.10;99.90
21672;DHT22;10997;52.242;8.168;2023-10-31T20:56:01;10.10;99.90
21672;DHT22;10997;52.242;8.168;2023-10-31T21:01:03;10.10;99.90
21672;DHT22;10997;52.242;8.168;2023-10-31T21:06:04;10.10;99.90
21672;DHT22;10997;52.242;8.168;2023-10-31T21:11:05;10.10;99.90
21672;DHT22;10997;52.242;8.168;2023-10-31T21:16:06;10.10;99.90
21672;DHT22;10997;52.242;8.168;2023-10-31T21:21:06;10.10;99.90
21672;DHT22;10997;52.242;8.168;2023-10-31T21:26:07;10.10;99.90
21672;DHT22;10997;52.242;8.168;2023-10-31T21:31:08;10.10;99.90
21672;DHT22;10997;52.242;8.168;2023-10-31T21:36:08;10.10;99.90
21672;DHT22;10997;52.242;8.168;2023-10-31T21:41:09;10.10;99.90
21672;DHT22;10997;52.242;8.168;2023-10-31T21:46:10;10.20;99.90
21672;DHT22;10997;52.242;8.168;2023-10-31T21:51:10;10.20;99.90
21672;DHT22;10997;52.242;8.168;2023-10-31T21:56:11;10.20;99.90
21672;DHT22;10997;52.242;8.168;2023-10-31T22:01:12;10.30;99.90
21672;DHT22;10997;52.242;8.168;2023-10-31T22:06:12;10.30;99.90
21672;DHT22;10997;52.242;8.168;2023-10-31T22:11:13;10.30;99.90
21672;DHT22;10997;52.242;8.168;2023-10-31T22:16:14;10.30;99.90
21672;DHT22;10997;52.242;8.168;2023-10-31T22:21:14;10.30;99.90
21672;DHT22;10997;52.242;8.168;2023-10-31T22:26:15;10.30;99.90
21672;DHT22;10997;52.242;8.168;2023-10-31T22:31:15;10.30;99.90
21672;DHT22;10997;52.242;8.168;2023-10-31T22:36:16;10.30;99.90
21672;DHT22;10997;52.242;8.168;2023-10-31T22:41:16;10.30;99.90
21672;DHT22;10997;52.242;8.168;2023-10-31T22:46:17;10.30;99.90
21672;DHT22;10997;52.242;8.168;2023-10-31T22:51:18;10.40;99.90
21672;DHT22;10997;52.242;8.168;2023-10-31T22:56:18;10.40;99.90
21672;DHT22;10997;52.242;8.168;2023-10-31T23:01:19;10.40;99.90
21672;DHT22;10997;52.242;8.168;2023-10-31T23:06:20;10.40;99.90
21672;DHT22;10997;52.242;8.168;2023-10-31T23:11:20;10.40;99.90
21672;DHT22;10997;52.242;8.168;2023-10-31T23:16:21;10.40;99.90
21672;DHT22;10997;52.242;8.168;2023-10-31T23:21:22;10.40;99.90
21672;DHT22;10997;52.242;8.168;2023-10-31T23:26:23;10.30;99.90
21672;DHT22;10997;52.242;8.168;2023-10-31T23:31:23;10.20;99.90
21672;DHT22;10997;52.242;8.168;2023-10-31T23:36:24;10.10;99.90
21672;DHT22;10997;52.242;8.168;2023-10-31T23:41:24;10.10;99.90
21672;DHT22;10997;52.242;8.168;2023-10-31T23:46:25;10.10;99.90
21672;DHT22;10997;52.242;8.168;2023-10-31T23:51:26;10.10;99.90
21672;DHT22;10997;52.242;8.168;2023-10-31T23:56:27;10.10;99.90
